Latest Weather Observations for Applethorpe

IDQ60801

Issued at 10:03 pm EST Saturday 25 June 2016 (issued every 30 minutes, with the page automatically refreshed every 10 minutes)

About weather observations | Map of weather stations | Latest weather observations for QLD | Other Formats
Station Details ID: 041175 Name: APPLETHORPE Lat: -28.62 Lon: 151.95 Height: 871.6 m
Data from the previous 72 hours. | See also: Recent months at Applethorpe
Date/Time
EST
Temp
°C
App
Temp
°C
Dew
Point
°C
Rel
Hum
%
Delta-T
°C
Wind Press
QNH
hPa
Press
MSL
hPa
Rain since
9am
mm
Dir  Spd
km/h
Gust
km/h
Spd
kts
Gust
kts
25/10:00pm -2.0 - - - - CALM 0 0 0 0 1020.3 1020.1 0.0
25/09:30pm -1.8 - - - - CALM 0 0 0 0 1020.2 1020.0 0.0
25/09:00pm -1.6 - - - - CALM 0 0 0 0 1020.1 1019.9 0.0
25/08:30pm -0.8 - - - - CALM 0 0 0 0 1020.1 1019.9 0.0
25/08:00pm -0.3 - - - - CALM 0 0 0 0 1020.1 1019.9 0.0
25/07:30pm 0.4 - - - - CALM 0 0 0 0 1020.0 1019.8 0.0
25/07:00pm 1.2 -1.0 -1.2 84 0.9 CALM 0 2 0 1 1019.8 1019.5 0.0
25/06:30pm 2.0 -0.6 -1.5 77 1.3 SSW 2 4 1 2 1019.4 1019.2 0.0
25/06:00pm 3.0 -0.1 -2.4 67 2.0 SW 4 6 2 3 1018.9 1018.6 0.0
25/05:30pm 4.0 0.6 -2.4 63 2.4 SW 6 7 3 4 1018.5 1018.2 0.0
25/05:00pm 5.4 1.9 -2.5 57 3.0 WSW 6 9 3 5 1018.3 1018.1 0.0
25/04:30pm 6.8 2.6 -3.6 47 3.9 SW 9 15 5 8 1017.9 1017.6 0.0
25/04:00pm 8.0 3.7 -4.6 40 4.7 SW 9 19 5 10 1017.8 1017.5 0.0
25/03:30pm 8.5 3.7 -5.8 36 5.2 SW 11 17 6 9 1017.7 1017.4 0.0
25/03:00pm 9.0 3.9 -4.9 37 5.2 WSW 13 24 7 13 1017.5 1017.2 0.0
25/02:30pm 9.0 4.4 -4.1 39 5.0 WSW 11 20 6 11 1017.5 1017.2 0.0
25/02:00pm 8.6 3.6 -4.4 39 4.9 WSW 13 20 7 11 1017.4 1017.1 0.0
25/01:30pm 8.3 2.9 -4.9 39 4.9 SW 15 24 8 13 1017.6 1017.3 0.0
25/01:00pm 8.2 2.6 -6.3 35 5.2 SW 15 26 8 14 1017.7 1017.4 0.0
25/12:30pm 8.0 2.8 -5.8 37 5.0 SW 13 24 7 13 1017.8 1017.5 0.0
25/12:00pm 7.3 1.3 -7.1 35 5.0 WSW 17 30 9 16 1018.0 1017.8 0.0
25/11:30am 7.2 1.2 -6.8 36 4.9 SW 17 26 9 14 1018.2 1018.0 0.0
25/11:00am 6.7 0.3 -6.9 37 4.7 WSW 19 30 10 16 1018.2 1018.0 0.0
25/10:30am 6.3 0.3 -6.3 40 4.4 SW 17 33 9 18 1018.2 1018.0 0.0
25/10:00am 5.6 -0.7 -5.8 43 4.0 SW 19 26 10 14 1018.3 1018.1 0.0
25/09:30am 5.2 -0.2 -4.1 51 3.4 SW 15 26 8 14 1018.5 1018.2 0.0
25/09:00am 4.2 -1.8 -3.4 58 2.8 SW 19 32 10 17 1018.0 1017.8 0.8
25/08:30am 3.2 -3.0 -3.1 63 2.3 SW 20 33 11 18 1017.6 1017.3 0.8
25/08:00am 2.3 -3.2 -2.0 73 1.6 SW 17 30 9 16 1017.5 1017.2 0.8
25/07:30am 1.6 -3.9 -1.9 77 1.3 SW 17 28 9 15 1017.4 1017.1 0.8
25/07:00am 1.5 -3.9 -1.7 79 1.2 SW 17 32 9 17 1016.8 1016.5 0.8
25/06:30am 1.5 -4.5 -1.7 79 1.2 WSW 20 33 11 18 1016.3 1016.0 0.8
25/06:00am 1.8 -4.6 -1.7 77 1.3 WSW 22 35 12 19 1016.4 1016.1 0.8
25/05:30am 1.9 -3.9 -1.3 79 1.2 SW 19 32 10 17 1016.3 1016.0 0.8
25/05:00am 2.0 -3.3 -0.9 81 1.1 WSW 17 30 9 16 1016.2 1015.9 0.8
25/04:30am 2.4 -3.4 -1.3 76 1.4 WSW 19 33 10 18 1015.8 1015.5 0.8
25/04:00am 2.8 -3.6 -1.4 74 1.6 WSW 22 35 12 19 1016.0 1015.7 0.8
25/03:30am 3.2 -2.8 -1.2 73 1.7 SW 20 35 11 19 1016.1 1015.8 0.8
25/03:00am 3.4 -2.9 -1.0 73 1.7 WSW 22 35 12 19 1016.0 1015.7 0.8
25/02:30am 3.5 -2.7 -0.6 74 1.6 WSW 22 37 12 20 1016.2 1015.9 0.8
25/02:00am 3.7 -2.1 0.2 78 1.4 WSW 20 35 11 19 1016.4 1016.1 0.8
25/01:30am 4.1 -2.3 0.9 80 1.3 WSW 24 46 13 25 1016.6 1016.3 0.8
25/01:00am 4.3 -1.3 1.4 81 1.2 WSW 20 33 11 18 1016.9 1016.6 0.8
25/12:30am 4.8 -1.1 1.4 78 1.4 WSW 22 37 12 20 1017.0 1016.8 0.8
25/12:00am 5.2 -0.8 1.1 75 1.7 WSW 22 39 12 21 1017.0 1016.8 0.8
 
Date/Time
EST
Temp
°C
App
Temp
°C
Dew
Point
°C
Rel
Hum
%
Delta-T
°C
Wind Press
QNH
hPa
Press
MSL
hPa
Rain since
9am
mm
Dir  Spd
km/h
Gust
km/h
Spd
kts
Gust
kts
24/11:30pm 5.3 -0.7 1.2 75 1.7 WSW 22 39 12 21 1016.9 1016.6 0.8
24/11:00pm 5.4 0.1 1.6 76 1.6 WSW 19 33 10 18 1017.0 1016.8 0.8
24/10:30pm 5.7 0.2 1.7 75 1.7 WSW 20 33 11 18 1017.2 1016.9 0.8
24/10:00pm 6.0 1.1 2.0 75 1.7 WSW 17 32 9 17 1017.5 1017.2 0.8
24/09:30pm 6.4 1.0 2.2 74 1.8 WSW 20 37 11 20 1017.3 1017.0 0.8
24/09:00pm 6.5 2.1 2.6 76 1.7 WSW 15 30 8 16 1017.0 1016.8 0.8
24/08:30pm 6.8 2.8 2.9 76 1.7 WSW 13 20 7 11 1016.9 1016.6 0.8
24/08:00pm 7.4 2.6 2.4 70 2.2 WSW 17 28 9 15 1016.6 1016.3 0.8
24/07:30pm 7.8 3.1 3.1 72 2.1 WSW 17 32 9 17 1016.2 1015.9 0.8
24/07:00pm 8.4 3.5 4.0 74 2.0 WSW 19 33 10 18 1015.6 1015.3 0.8
24/06:30pm 8.6 3.5 4.0 73 2.1 W 20 35 11 19 1015.0 1014.7 0.8
24/06:00pm 8.5 4.3 3.7 72 2.2 W 15 24 8 13 1014.4 1014.1 0.8
24/05:30pm 8.9 3.8 3.2 67 2.6 W 19 33 10 18 1013.8 1013.4 0.8
24/05:00pm 9.2 4.6 3.5 67 2.6 WSW 17 26 9 14 1013.8 1013.4 0.8
24/04:30pm 9.8 4.5 3.0 62 3.1 WSW 20 41 11 22 1013.5 1013.1 0.8
24/04:00pm 10.1 4.2 2.0 57 3.6 WSW 22 41 12 22 1013.1 1012.8 0.8
24/03:30pm 11.1 5.9 3.6 60 3.5 W 20 43 11 23 1012.7 1012.3 0.8
24/03:00pm 11.3 5.7 5.3 66 2.9 W 24 43 13 23 1012.5 1012.1 0.8
24/02:30pm 11.2 6.6 6.6 73 2.3 W 20 41 11 22 1012.1 1011.8 0.8
24/02:00pm 11.5 7.0 6.9 73 2.3 WSW 20 33 11 18 1011.9 1011.5 0.8
24/01:30pm 11.5 7.8 8.0 79 1.8 W 17 37 9 20 1012.1 1011.8 0.8
24/01:00pm 11.4 7.3 8.7 83 1.4 W 20 35 11 19 1012.1 1011.8 0.8
24/12:30pm 11.4 7.9 10.1 92 0.7 W 19 41 10 22 1012.4 1012.0 0.6
24/12:00pm 11.6 8.1 10.1 90 0.8 W 19 32 10 17 1012.7 1012.3 0.6
24/11:30am 12.8 9.8 10.8 88 1.1 W 17 32 9 17 1012.9 1012.5 0.6
24/11:00am 11.9 9.4 11.0 94 0.5 W 15 28 8 15 1013.5 1013.1 0.4
24/10:30am 12.3 9.3 10.8 90 0.8 W 17 39 9 21 1013.6 1013.2 0.2
24/10:00am 11.6 8.2 10.7 94 0.5 W 19 33 10 18 1013.8 1013.4 0.2
24/09:30am 12.0 9.6 11.3 95 0.4 W 15 32 8 17 1013.8 1013.4 0.2
24/09:00am 11.7 9.2 11.0 95 0.4 W 15 28 8 15 1013.7 1013.3 12.8
24/08:30am 11.5 9.3 10.8 95 0.4 W 13 26 7 14 1013.6 1013.2 12.8
24/08:00am 11.4 10.0 10.8 96 0.3 W 9 19 5 10 1013.5 1013.1 12.6
24/07:30am 11.3 9.1 10.7 96 0.3 W 13 22 7 12 1013.1 1012.8 12.4
24/07:00am 11.2 9.3 10.6 96 0.3 W 11 20 6 11 1012.9 1012.5 11.8
24/06:30am 11.2 8.9 10.6 96 0.3 W 13 20 7 11 1012.8 1012.4 11.2
24/06:00am 11.1 9.6 10.5 96 0.3 W 9 20 5 11 1012.1 1011.8 11.0
24/05:30am 11.1 9.2 10.5 96 0.3 W 11 20 6 11 1012.0 1011.7 10.4
24/05:00am 11.0 8.7 10.4 96 0.3 W 13 20 7 11 1012.0 1011.7 9.8
24/04:30am 10.9 8.6 10.3 96 0.3 W 13 22 7 12 1011.9 1011.5 9.0
24/04:00am 10.9 9.4 10.5 97 0.2 WNW 9 17 5 9 1011.8 1011.4 8.6
24/03:30am 10.8 9.3 10.4 97 0.2 WNW 9 17 5 9 1012.0 1011.7 8.2
24/03:00am 10.6 9.4 10.2 97 0.2 WNW 7 13 4 7 1012.4 1012.0 8.0
24/02:30am 10.5 9.4 10.1 97 0.2 WNW 6 11 3 6 1012.6 1012.2 7.8
24/02:00am 10.5 9.2 10.1 97 0.2 W 7 17 4 9 1012.9 1012.5 7.6
24/01:30am 10.6 8.9 10.0 96 0.3 WNW 9 19 5 10 1013.2 1012.9 6.8
24/01:00am 10.7 9.1 10.1 96 0.3 W 9 17 5 9 1013.1 1012.8 6.4
24/12:30am 10.7 9.1 10.1 96 0.3 W 9 19 5 10 1013.9 1013.5 5.8
24/12:00am 10.7 8.7 10.1 96 0.3 W 11 24 6 13 1013.9 1013.5 4.6
 
Date/Time
EST
Temp
°C
App
Temp
°C
Dew
Point
°C
Rel
Hum
%
Delta-T
°C
Wind Press
QNH
hPa
Press
MSL
hPa
Rain since
9am
mm
Dir  Spd
km/h
Gust
km/h
Spd
kts
Gust
kts
23/11:30pm 10.7 8.3 10.1 96 0.3 W 13 24 7 13 1014.2 1013.9 4.4
23/11:00pm 10.8 8.4 10.0 95 0.4 WNW 13 22 7 12 1014.3 1014.0 3.8
23/10:30pm 10.7 9.1 10.1 96 0.3 W 9 17 5 9 1014.5 1014.2 3.2
23/10:00pm 10.6 9.3 10.0 96 0.3 WNW 7 11 4 6 1014.5 1014.2 2.0
23/09:30pm 10.5 9.2 9.9 96 0.3 WNW 7 15 4 8 1014.4 1014.1 1.6
23/09:00pm 10.4 10.1 10.0 97 0.2 WNW 2 9 1 5 1014.2 1013.9 1.0
23/08:30pm 10.4 8.7 9.8 96 0.3 WNW 9 17 5 9 1014.4 1014.1 0.4
23/08:00pm 10.3 8.9 9.7 96 0.3 WNW 7 13 4 7 1014.2 1013.9 0.4
23/07:30pm 10.4 9.0 9.6 95 0.4 WNW 7 17 4 9 1014.4 1014.1 0.2
23/07:00pm 10.3 9.1 9.5 95 0.4 W 6 13 3 7 1014.1 1013.8 0.2
23/06:30pm 10.1 8.9 9.5 96 0.3 WNW 6 11 3 6 1014.1 1013.8 0.2
23/06:00pm 10.3 9.0 9.1 92 0.6 WNW 6 15 3 8 1013.6 1013.2 0.2
23/05:30pm 10.4 9.0 8.9 90 0.8 WNW 6 13 3 7 1013.5 1013.1 0.2
23/05:00pm 10.4 8.8 8.7 89 0.9 WNW 7 15 4 8 1013.6 1013.2 0.2
23/04:30pm 10.5 8.9 8.6 88 1.0 W 7 15 4 8 1013.8 1013.4 0.2
23/04:00pm 10.6 8.9 8.5 87 1.1 W 7 15 4 8 1013.3 1013.0 0.2
23/03:30pm 10.7 8.7 8.8 88 1.0 W 9 19 5 10 1013.6 1013.2 0.2
23/03:00pm 10.8 8.9 9.1 89 0.9 W 9 17 5 9 1013.9 1013.5 0.2
23/02:30pm 10.9 9.4 9.0 88 1.0 W 7 15 4 8 1014.0 1013.7 0.2
23/02:00pm 10.6 9.1 9.3 92 0.7 W 7 13 4 7 1014.2 1013.9 0.2
23/01:30pm 10.3 8.2 8.1 86 1.1 W 9 17 5 9 1014.5 1014.2 0.0
23/01:00pm 11.0 8.2 7.0 76 2.0 WSW 11 20 6 11 1014.8 1014.4 0.0
23/12:30pm 11.1 8.1 6.2 72 2.4 W 11 19 6 10 1015.4 1015.1 0.0
23/12:00pm 11.0 8.9 6.8 75 2.1 W 7 15 4 8 1015.7 1015.4 0.0
23/11:30am 11.0 8.9 6.6 74 2.2 WNW 7 20 4 11 1016.1 1015.8 0.0
23/11:00am 10.1 7.5 6.0 76 2.0 W 9 13 5 7 1016.8 1016.5 0.0
23/10:30am 10.0 7.9 5.6 74 2.1 W 6 11 3 6 1016.8 1016.5 0.0
23/10:00am 9.7 8.4 6.0 78 1.8 WNW 2 7 1 4 1016.6 1016.3 0.0
23/09:30am 9.2 7.5 5.9 80 1.6 W 4 9 2 5 1017.4 1017.1 0.0
23/09:00am 8.7 7.1 6.4 85 1.1 W 4 7 2 4 1017.2 1016.9 0.2
23/08:30am 8.2 6.7 7.0 92 0.6 SW 4 9 2 5 1016.3 1016.0 0.2
23/08:00am 7.6 6.1 6.6 93 0.5 N 4 9 2 5 1016.9 1016.6 0.2
23/07:30am 6.9 5.7 6.5 97 0.2 NW 2 6 1 3 1016.3 1016.0 0.2
23/07:00am 6.8 5.9 6.2 96 0.3 CALM 0 0 0 0 1015.6 1015.3 0.2
23/06:30am 6.9 6.1 6.3 96 0.3 CALM 0 0 0 0 1016.3 1016.0 0.2
23/06:00am 7.1 5.9 6.3 95 0.4 ENE 2 6 1 3 1015.4 1015.1 0.2
23/05:30am 7.6 5.3 5.9 89 0.8 SW 7 11 4 6 1015.3 1015.0 0.2
23/05:00am 7.3 5.3 6.3 93 0.5 SW 6 9 3 5 1015.4 1015.1 0.2
23/04:30am 7.4 5.2 6.4 93 0.5 WSW 7 11 4 6 1015.8 1015.5 0.2
23/04:00am 7.6 5.4 6.1 90 0.7 SW 7 13 4 7 1015.2 1014.9 0.2
23/03:30am 7.8 5.5 5.7 86 1.0 WSW 7 13 4 7 1015.6 1015.3 0.2
23/03:00am 7.9 5.2 5.4 84 1.2 W 9 13 5 7 1015.2 1014.9 0.2
23/02:30am 7.5 5.2 5.6 88 0.9 WSW 7 11 4 6 1015.0 1014.7 0.2
23/02:00am 7.3 5.2 5.8 90 0.7 W 6 9 3 5 1014.5 1014.2 0.2
23/01:30am 7.3 5.1 6.0 91 0.6 WSW 7 9 4 5 1015.0 1014.7 0.2
23/01:00am 7.4 4.8 6.1 91 0.6 SW 9 15 5 8 1015.7 1015.4 0.2
23/12:30am 7.2 5.2 6.2 93 0.5 SW 6 11 3 6 1015.5 1015.2 0.2
23/12:00am 7.6 5.4 6.4 92 0.6 SW 7 11 4 6 1016.5 1016.2 0.2
 
Date/Time
EST
Temp
°C
App
Temp
°C
Dew
Point
°C
Rel
Hum
%
Delta-T
°C
Wind Press
QNH
hPa
Press
MSL
hPa
Rain since
9am
mm
Dir  Spd
km/h
Gust
km/h
Spd
kts
Gust
kts
22/11:30pm 8.2 5.7 6.6 90 0.8 SW 9 17 5 9 1016.7 1016.4 0.2
22/11:00pm 8.5 6.7 7.1 91 0.7 SW 6 11 3 6 1016.2 1015.9 0.2
22/10:30pm 8.3 6.5 7.1 92 0.6 SW 6 7 3 4 1015.2 1014.9 0.2

Other Formats:

Comma delimited format used in spreadsheet applications
http://www.bom.gov.au/fwo/IDQ60801/IDQ60801.94553.axf

JavaScript Object Notation format (JSON) in row-major order
http://www.bom.gov.au/fwo/IDQ60801/IDQ60801.94553.json